Time;durP1;ratioP1;P1;durP2;ratioP2;P2;SDS_P1;SDS_P2;PMS_P1;PMS_P2;Temp;Humidity;BMP_temperature;BMP_pressure;BME280_temperature;BME280_humidity;BME280_pressure;Samples;Min_cycle;Max_cycle;Signal;HPM_P1;HPM_P2
2022/05/23 00:02:25;;;;;;;4.53;1.70;;;20.20;73.60;;;;;;4946709;29;20395;-88
2022/05/23 00:04:51;;;;;;;6.18;2.03;;;20.20;73.60;;;;;;4945974;28;20031;-86
2022/05/23 00:07:30;;;;;;;5.43;1.65;;;20.10;73.60;;;;;;4937550;28;20031;-87
2022/05/23 00:09:56;;;;;;;6.60;1.90;;;20.10;73.60;;;;;;4960014;28;20051;-87
2022/05/23 00:12:22;;;;;;;7.28;2.00;;;20.00;73.60;;;;;;4959179;28;20086;-87
2022/05/23 00:14:50;;;;;;;6.78;2.10;;;20.00;73.70;;;;;;4939753;28;20642;-87
2022/05/23 00:17:16;;;;;;;3.55;1.80;;;20.00;73.90;;;;;;4969840;28;20030;-86
2022/05/23 00:19:42;;;;;;;6.55;1.67;;;20.00;74.00;;;;;;4943532;28;20077;-86
2022/05/23 00:22:08;;;;;;;5.32;1.92;;;19.90;74.10;;;;;;4961934;28;20383;-87
2022/05/23 00:24:34;;;;;;;8.18;1.75;;;19.90;74.00;;;;;;4951676;28;20045;-86
2022/05/23 00:26:59;;;;;;;7.40;2.03;;;19.90;73.90;;;;;;4944573;28;20383;-87
2022/05/23 00:29:25;;;;;;;4.55;1.75;;;19.90;74.20;;;;;;4948191;28;20031;-86
2022/05/23 00:37:22;;;;;;;5.75;1.98;;;19.80;75.10;;;;;;4959937;28;20115;-86
2022/05/23 00:39:48;;;;;;;5.57;1.80;;;19.80;75.20;;;;;;4946641;28;20029;-86
2022/05/23 00:45:03;;;;;;;6.35;1.88;;;19.80;75.10;;;;;;4958880;28;20066;-86
2022/05/23 00:47:30;;;;;;;5.00;2.10;;;19.70;75.20;;;;;;4948679;28;20031;-87
2022/05/23 00:49:56;;;;;;;5.03;2.03;;;19.70;75.10;;;;;;4957721;28;20038;-86
2022/05/23 00:52:37;;;;;;;7.07;2.25;;;19.60;75.20;;;;;;4947980;28;20039;-87
2022/05/23 00:55:08;;;;;;;5.30;2.00;;;19.60;75.40;;;;;;4952107;28;20693;-87
2022/05/23 00:57:40;;;;;;;4.53;2.08;;;19.60;75.20;;;;;;4953022;28;20023;-87
2022/05/23 01:00:08;;;;;;;6.70;2.15;;;19.60;75.40;;;;;;4944975;28;20552;-86
2022/05/23 01:02:36;;;;;;;7.10;2.17;;;19.50;75.20;;;;;;4961117;28;20140;-86
2022/05/23 01:05:06;;;;;;;8.13;2.40;;;19.50;75.30;;;;;;4962108;28;20031;-86
2022/05/23 01:07:32;;;;;;;5.30;2.05;;;19.50;75.40;;;;;;4958244;28;20035;-87
2022/05/23 01:09:58;;;;;;;5.35;2.00;;;19.50;75.50;;;;;;4936963;28;20106;-87
2022/05/23 01:12:25;;;;;;;8.00;2.10;;;19.50;75.50;;;;;;4941360;28;20045;-87
2022/05/23 01:14:57;;;;;;;6.95;2.25;;;19.40;75.60;;;;;;4958453;28;20081;-86
2022/05/23 01:17:25;;;;;;;5.75;2.25;;;19.40;75.70;;;;;;4953701;28;20032;-87
2022/05/23 01:19:51;;;;;;;4.05;1.80;;;19.40;75.60;;;;;;4938112;28;20035;-86
2022/05/23 01:22:39;;;;;;;5.40;2.10;;;19.30;75.60;;;;;;4939750;28;20129;-86
2022/05/23 01:25:18;;;;;;;7.30;1.88;;;19.30;75.60;;;;;;4946421;28;20018;-86
2022/05/23 01:27:46;;;;;;;7.90;2.20;;;19.30;75.90;;;;;;4935949;28;20083;-87
2022/05/23 01:30:13;;;;;;;6.63;2.08;;;19.30;76.00;;;;;;4957193;28;20028;-86
2022/05/23 01:32:39;;;;;;;6.35;2.00;;;19.30;76.10;;;;;;4944669;28;20043;-88
2022/05/23 01:35:09;;;;;;;7.25;2.20;;;19.30;76.30;;;;;;4961030;28;20028;-87
2022/05/23 01:37:35;;;;;;;5.53;2.42;;;19.20;76.50;;;;;;4959363;28;20085;-86
2022/05/23 01:40:01;;;;;;;5.95;2.58;;;19.20;76.80;;;;;;4958487;28;20023;-87
2022/05/23 01:42:26;;;;;;;7.65;2.30;;;19.20;77.00;;;;;;4961478;28;20503;-87
2022/05/23 01:44:52;;;;;;;6.82;2.20;;;19.20;77.10;;;;;;4964281;28;20098;-87
2022/05/23 01:47:20;;;;;;;7.07;2.20;;;19.20;77.50;;;;;;4933613;28;20189;-87
2022/05/23 01:49:46;;;;;;;8.32;2.72;;;19.10;77.60;;;;;;4965981;28;20519;-86
2022/05/23 01:52:12;;;;;;;7.40;2.40;;;19.10;77.70;;;;;;4958444;28;20055;-86
2022/05/23 01:54:38;;;;;;;4.68;2.30;;;19.20;77.80;;;;;;4943628;28;20027;-87
2022/05/23 01:57:07;;;;;;;3.80;2.10;;;19.10;77.80;;;;;;4949822;28;20118;-86
2022/05/23 02:02:17;;;;;;;5.13;2.20;;;19.10;77.70;;;;;;4965508;28;20407;-86
2022/05/23 02:04:43;;;;;;;7.22;2.25;;;19.10;77.80;;;;;;4940422;28;20031;-87
2022/05/23 02:07:09;;;;;;;7.13;2.30;;;19.00;77.90;;;;;;4947043;28;20031;-87
2022/05/23 02:09:35;;;;;;;8.52;2.65;;;19.00;77.90;;;;;;4932495;28;20047;-86
2022/05/23 02:12:01;;;;;;;5.95;2.40;;;19.00;78.30;;;;;;4961590;28;20094;-88
2022/05/23 02:14:27;;;;;;;6.32;2.10;;;19.00;78.50;;;;;;4958222;28;20387;-87
2022/05/23 02:16:53;;;;;;;6.57;2.15;;;18.90;78.80;;;;;;4960669;28;20032;-88
2022/05/23 02:19:19;;;;;;;6.55;2.15;;;18.90;79.10;;;;;;4962283;28;20150;-86
2022/05/23 02:21:44;;;;;;;6.35;2.60;;;18.90;79.40;;;;;;4943645;28;20122;-86
2022/05/23 02:24:10;;;;;;;7.93;3.35;;;18.90;79.60;;;;;;4946936;28;20058;-86
2022/05/23 02:26:36;;;;;;;6.10;2.40;;;18.90;79.70;;;;;;4963839;28;20114;-86
2022/05/23 02:29:03;;;;;;;5.28;2.30;;;18.90;79.90;;;;;;4953352;28;20022;-87
2022/05/23 02:31:29;;;;;;;7.60;2.80;;;18.90;80.10;;;;;;4942973;29;20080;-87
2022/05/23 02:33:55;;;;;;;6.13;2.78;;;18.80;80.30;;;;;;4943382;28;20042;-87
2022/05/23 02:36:21;;;;;;;7.28;2.40;;;18.80;80.60;;;;;;4951030;28;20035;-87
2022/05/23 02:38:46;;;;;;;5.32;2.70;;;18.80;80.70;;;;;;4940284;28;20050;-86
2022/05/23 02:41:12;;;;;;;6.50;2.95;;;18.70;80.80;;;;;;4957155;28;20400;-86
2022/05/23 02:43:38;;;;;;;5.80;2.95;;;18.70;80.80;;;;;;4947359;28;20472;-86
2022/05/23 02:46:04;;;;;;;7.13;2.92;;;18.70;81.00;;;;;;4934780;28;20503;-86
2022/05/23 02:48:29;;;;;;;7.85;3.15;;;18.70;81.30;;;;;;4948460;28;20023;-88
2022/05/23 02:50:55;;;;;;;6.70;2.80;;;18.70;81.60;;;;;;4965363;28;20110;-86
2022/05/23 02:53:21;;;;;;;6.60;2.67;;;18.70;81.90;;;;;;4973907;28;20046;-86
2022/05/23 02:55:46;;;;;;;5.72;2.88;;;18.60;81.90;;;;;;4947485;28;20513;-87
2022/05/23 02:58:12;;;;;;;6.63;2.95;;;18.60;82.00;;;;;;4956328;28;20038;-87
2022/05/23 03:00:38;;;;;;;6.55;3.30;;;18.60;82.20;;;;;;4927098;28;20034;-87
2022/05/23 03:03:06;;;;;;;5.88;2.90;;;18.60;82.40;;;;;;4959507;28;20027;-86
2022/05/23 03:05:37;;;;;;;8.32;2.80;;;18.60;82.60;;;;;;4947275;29;20031;-87
2022/05/23 03:08:03;;;;;;;;;;;18.50;82.70;;;;;;4964110;28;20035;-86
2022/05/23 03:10:28;;;;;;;11.13;3.17;;;18.50;82.90;;;;;;4967814;28;19922;-86
2022/05/23 03:12:55;;;;;;;8.95;3.25;;;18.50;82.90;;;;;;4970866;28;20034;-87
2022/05/23 03:15:21;;;;;;;7.47;2.85;;;18.50;83.20;;;;;;4972607;28;20027;-88
2022/05/23 03:17:47;;;;;;;4.53;2.75;;;18.50;83.40;;;;;;4981629;28;20022;-88
2022/05/23 03:20:14;;;;;;;5.03;3.15;;;18.40;83.50;;;;;;4982714;28;20015;-87
2022/05/23 03:28:08;;;;;;;7.25;3.10;;;18.40;84.10;;;;;;4990644;28;20043;-87
2022/05/23 03:30:34;;;;;;;8.60;3.05;;;18.40;84.30;;;;;;4962459;28;20015;-90
2022/05/23 03:33:00;;;;;;;7.00;3.20;;;18.40;84.40;;;;;;4960561;29;20031;-87
2022/05/23 03:35:29;;;;;;;6.60;2.75;;;18.30;84.40;;;;;;4972901;28;20031;-87
2022/05/23 03:37:55;;;;;;;5.82;3.35;;;18.30;84.70;;;;;;4970067;28;20026;-86
2022/05/23 03:40:21;;;;;;;9.20;3.20;;;18.30;85.00;;;;;;4953112;28;20031;-86
2022/05/23 03:42:47;;;;;;;7.38;3.65;;;18.30;85.30;;;;;;4957353;28;20062;-86
2022/05/23 03:45:15;;;;;;;7.95;3.60;;;18.20;85.50;;;;;;4946953;29;20039;-86
2022/05/23 03:47:41;;;;;;;7.53;3.67;;;18.20;85.70;;;;;;4948385;28;20039;-86
2022/05/23 03:50:08;;;;;;;8.73;3.83;;;18.20;85.80;;;;;;4952663;29;20110;-87
2022/05/23 03:52:33;;;;;;;5.72;3.20;;;18.20;85.90;;;;;;4960119;28;20078;-86
2022/05/23 03:54:59;;;;;;;7.97;3.50;;;18.20;86.10;;;;;;4944043;28;20035;-87
2022/05/23 03:57:25;;;;;;;7.97;3.30;;;18.20;86.50;;;;;;4960161;28;20094;-86
2022/05/23 03:59:52;;;;;;;8.05;3.17;;;18.20;86.60;;;;;;4941047;28;20062;-88
2022/05/23 04:02:20;;;;;;;12.10;5.10;;;18.10;86.80;;;;;;4948250;29;20036;-86
2022/05/23 04:04:46;;;;;;;8.68;4.10;;;18.20;86.90;;;;;;4951294;28;20390;-86
2022/05/23 04:07:13;;;;;;;8.73;3.75;;;18.10;86.80;;;;;;4955935;28;20118;-86
2022/05/23 04:09:40;;;;;;;6.82;3.83;;;18.10;86.80;;;;;;4961550;28;20055;-86
2022/05/23 04:12:06;;;;;;;9.55;3.75;;;18.10;86.80;;;;;;4944287;28;20027;-86
2022/05/23 04:14:32;;;;;;;7.20;3.78;;;18.10;87.00;;;;;;4930621;28;20031;-87
2022/05/23 04:16:58;;;;;;;8.55;4.10;;;18.00;87.10;;;;;;4924863;28;20140;-86
2022/05/23 04:19:24;;;;;;;9.80;4.30;;;18.00;87.10;;;;;;4934000;29;20028;-87
2022/05/23 04:21:49;;;;;;;9.95;4.38;;;18.00;87.40;;;;;;4941229;28;20035;-86
2022/05/23 04:24:17;;;;;;;9.95;4.43;;;18.00;87.60;;;;;;4956329;28;20023;-86
2022/05/23 04:26:43;;;;;;;8.35;3.90;;;18.00;87.90;;;;;;4957099;28;20027;-87
2022/05/23 04:29:08;;;;;;;8.73;4.45;;;18.00;88.10;;;;;;4960695;28;20523;-86
2022/05/23 04:31:35;;;;;;;15.05;4.85;;;18.00;88.30;;;;;;4949055;29;20031;-86
2022/05/23 04:36:48;;;;;;;8.90;4.43;;;18.00;88.60;;;;;;4959969;28;20118;-85
2022/05/23 04:39:13;;;;;;;10.57;4.93;;;17.90;88.60;;;;;;4961220;28;20420;-87
2022/05/23 04:41:39;;;;;;;9.85;5.20;;;17.90;88.70;;;;;;4954454;28;20071;-86
2022/05/23 04:44:06;;;;;;;9.63;4.90;;;17.90;88.90;;;;;;4932938;29;20039;-86
2022/05/23 04:46:33;;;;;;;10.10;4.60;;;17.90;89.20;;;;;;4941096;28;20606;-87
2022/05/23 04:51:43;;;;;;;10.77;4.55;;;17.90;89.60;;;;;;4959717;28;20118;-86
2022/05/23 04:54:09;;;;;;;8.10;4.97;;;17.90;89.80;;;;;;4965769;28;20083;-87
2022/05/23 04:56:34;;;;;;;10.07;4.75;;;17.90;89.70;;;;;;4960105;28;20035;-86
2022/05/23 04:59:00;;;;;;;8.45;4.55;;;17.90;89.90;;;;;;4950269;28;20038;-85
2022/05/23 05:01:26;;;;;;;6.68;3.67;;;17.90;90.00;;;;;;4944654;28;20062;-85
2022/05/23 05:03:57;;;;;;;7.25;4.15;;;17.80;90.00;;;;;;4931535;29;20126;-87
2022/05/23 05:06:23;;;;;;;8.38;4.55;;;17.80;90.10;;;;;;4948854;28;20037;-87
2022/05/23 05:08:49;;;;;;;7.13;3.70;;;17.80;90.20;;;;;;4967149;28;20027;-87
2022/05/23 05:11:15;;;;;;;9.15;4.35;;;17.80;90.30;;;;;;4961467;28;20058;-86
2022/05/23 05:13:43;;;;;;;8.85;4.38;;;17.80;90.50;;;;;;4940838;28;20039;-85
2022/05/23 05:16:09;;;;;;;7.65;4.00;;;17.80;90.50;;;;;;4969635;28;20023;-87
2022/05/23 05:18:35;;;;;;;7.60;3.95;;;17.80;90.60;;;;;;4969442;28;20046;-86
2022/05/23 05:21:11;;;;;;;10.48;4.72;;;17.80;90.60;;;;;;4980143;28;20113;-86
2022/05/23 05:23:37;;;;;;;7.80;4.25;;;17.80;90.80;;;;;;4977903;28;20034;-85
2022/05/23 05:26:05;;;;;;;8.98;4.57;;;17.80;90.90;;;;;;4979807;28;20035;-86
2022/05/23 05:28:30;;;;;;;10.27;4.85;;;17.80;91.00;;;;;;4948078;28;20039;-86
2022/05/23 05:31:08;;;;;;;7.28;4.28;;;17.80;91.10;;;;;;4963309;28;20031;-85
2022/05/23 05:33:40;;;;;;;6.20;4.25;;;17.80;91.20;;;;;;4965465;28;20034;-85
2022/05/23 05:36:16;;;;;;;9.50;5.05;;;17.90;91.30;;;;;;4963574;28;20034;-85
2022/05/23 05:38:57;;;;;;;8.40;4.82;;;17.90;91.40;;;;;;4959646;28;20023;-87
2022/05/23 05:41:30;;;;;;;8.20;4.40;;;17.90;91.50;;;;;;4969040;28;20027;-87
2022/05/23 05:44:02;;;;;;;6.50;4.50;;;17.90;91.70;;;;;;4947067;29;20459;-86
2022/05/23 05:46:37;;;;;;;8.88;5.20;;;17.90;91.80;;;;;;4961471;28;20039;-86
2022/05/23 05:49:08;;;;;;;7.60;4.40;;;17.90;91.80;;;;;;4945168;28;20027;-88
2022/05/23 05:51:35;;;;;;;11.73;5.32;;;17.90;91.90;;;;;;4969299;28;20122;-87
2022/05/23 05:54:02;;;;;;;9.85;5.05;;;17.90;92.10;;;;;;4939427;28;20042;-87
2022/05/23 05:56:28;;;;;;;9.95;5.70;;;18.00;92.20;;;;;;4951216;29;20023;-86
2022/05/23 05:58:54;;;;;;;16.55;5.07;;;18.00;92.30;;;;;;4930505;28;20030;-88
2022/05/23 06:01:19;;;;;;;9.27;4.70;;;18.00;92.30;;;;;;4921257;29;20034;-86
2022/05/23 06:03:45;;;;;;;10.82;5.25;;;18.00;92.40;;;;;;4960820;28;20049;-85
2022/05/23 06:11:39;;;;;;;9.30;5.55;;;18.10;92.80;;;;;;4971753;28;20057;-86
2022/05/23 06:14:04;;;;;;;12.88;5.57;;;18.10;93.00;;;;;;4966322;28;20406;-87
2022/05/23 06:16:36;;;;;;;10.38;5.82;;;18.10;93.20;;;;;;4981778;28;20026;-86
2022/05/23 06:19:03;;;;;;;7.65;5.43;;;18.20;93.20;;;;;;4979548;28;20077;-87
2022/05/23 06:21:28;;;;;;;11.43;5.75;;;18.20;93.20;;;;;;4963338;28;20061;-87
2022/05/23 06:23:55;;;;;;;13.02;6.63;;;18.20;93.20;;;;;;4945505;28;20043;-87
2022/05/23 06:26:22;;;;;;;10.45;5.90;;;18.20;93.20;;;;;;4959885;28;20039;-88
2022/05/23 06:28:50;;;;;;;10.10;5.55;;;18.20;93.30;;;;;;4945566;28;20082;-87
2022/05/23 06:31:16;;;;;;;8.50;5.70;;;18.20;93.40;;;;;;4979505;28;20463;-88
2022/05/23 06:33:42;;;;;;;7.55;5.65;;;18.30;93.60;;;;;;4959529;28;20030;-86
2022/05/23 06:36:10;;;;;;;11.35;6.15;;;18.30;93.70;;;;;;4959367;28;20039;-87
2022/05/23 06:38:37;;;;;;;9.95;5.53;;;18.30;93.90;;;;;;4977300;28;20027;-87
2022/05/23 06:41:06;;;;;;;13.18;5.95;;;18.40;94.00;;;;;;4959795;28;20054;-87
2022/05/23 06:43:32;;;;;;;9.85;5.30;;;18.40;94.10;;;;;;4959830;28;20039;-87
2022/05/23 06:45:59;;;;;;;9.75;5.95;;;18.40;94.20;;;;;;4943675;28;20109;-87
2022/05/23 06:48:25;;;;;;;10.10;5.95;;;18.40;94.20;;;;;;4943996;28;20050;-87
2022/05/23 06:50:51;;;;;;;9.57;5.97;;;18.40;94.20;;;;;;4943869;28;20131;-87
2022/05/23 06:53:21;;;;;;;11.43;6.38;;;18.40;94.30;;;;;;4943803;28;20039;-87
2022/05/23 06:55:48;;;;;;;8.68;5.57;;;18.50;94.40;;;;;;4976833;28;20035;-87
2022/05/23 06:58:14;;;;;;;10.02;5.75;;;18.50;94.40;;;;;;4959759;28;20375;-87
2022/05/23 07:00:40;;;;;;;9.23;5.75;;;18.60;94.60;;;;;;4945987;28;20042;-89
2022/05/23 07:03:06;;;;;;;9.52;5.30;;;18.60;94.60;;;;;;4940753;28;20045;-87
2022/05/23 07:13:45;;;;;;;8.50;5.20;;;18.70;94.70;;;;;;4960345;28;20116;-86
2022/05/23 07:16:11;;;;;;;9.52;5.32;;;18.70;94.70;;;;;;4939984;29;20039;-86
2022/05/23 07:18:38;;;;;;;8.18;5.40;;;18.80;94.90;;;;;;4955925;29;20023;-86
2022/05/23 07:21:07;;;;;;;9.35;5.25;;;18.80;95.00;;;;;;4939667;29;20078;-86
2022/05/23 07:23:37;;;;;;;9.80;5.20;;;18.90;94.90;;;;;;4957020;29;20081;-86
2022/05/23 07:26:04;;;;;;;9.60;5.20;;;18.90;94.80;;;;;;4956371;29;20063;-84
2022/05/23 07:28:30;;;;;;;7.85;4.38;;;19.00;95.10;;;;;;4958684;29;20274;-85
2022/05/23 07:30:56;;;;;;;7.85;4.45;;;19.00;94.80;;;;;;4942076;29;20027;-85
2022/05/23 07:33:22;;;;;;;7.97;4.25;;;19.10;94.90;;;;;;4956791;29;20032;-86
2022/05/23 07:35:57;;;;;;;8.57;4.15;;;19.10;94.80;;;;;;4939731;29;20042;-86
2022/05/23 07:38:23;;;;;;;7.70;4.25;;;19.20;94.50;;;;;;4955526;29;20024;-84
2022/05/23 07:40:53;;;;;;;7.65;4.30;;;19.20;94.50;;;;;;4956862;29;20033;-85
2022/05/23 07:43:19;;;;;;;8.45;4.53;;;19.30;94.20;;;;;;4956953;29;20107;-86
2022/05/23 07:45:45;;;;;;;7.45;4.30;;;19.30;94.10;;;;;;4956298;28;20031;-86
2022/05/23 07:48:11;;;;;;;9.40;4.93;;;19.40;94.00;;;;;;4923644;29;20134;-86
2022/05/23 07:50:38;;;;;;;7.97;4.40;;;19.40;93.80;;;;;;4939423;29;20472;-86
2022/05/23 08:01:16;;;;;;;8.25;4.22;;;19.60;93.40;;;;;;4956244;29;20046;-86
2022/05/23 08:03:46;;;;;;;9.85;4.40;;;19.60;93.30;;;;;;4939469;29;20035;-86
2022/05/23 08:06:12;;;;;;;10.02;5.00;;;19.70;93.20;;;;;;4956236;29;20035;-85
2022/05/23 08:08:38;;;;;;;7.85;4.13;;;19.70;93.00;;;;;;4939001;29;20027;-86
2022/05/23 08:11:08;;;;;;;8.27;3.80;;;19.70;93.10;;;;;;4938646;29;20523;-86
2022/05/23 08:13:35;;;;;;;8.10;4.00;;;19.80;93.00;;;;;;4939575;29;20041;-86
2022/05/23 08:16:01;;;;;;;9.48;4.50;;;19.80;92.90;;;;;;4956526;29;20039;-86
2022/05/23 08:18:26;;;;;;;9.60;4.30;;;19.90;92.60;;;;;;4938647;29;20531;-87
2022/05/23 08:20:52;;;;;;;8.32;3.97;;;19.90;92.50;;;;;;4922982;29;20058;-86
2022/05/23 08:23:17;;;;;;;7.90;4.00;;;20.00;92.30;;;;;;4938683;29;20070;-87
2022/05/23 08:25:43;;;;;;;11.80;4.65;;;20.00;92.20;;;;;;4938803;29;20038;-86
2022/05/23 08:28:09;;;;;;;8.90;4.50;;;20.10;92.10;;;;;;4956051;29;20074;-87
2022/05/23 08:30:35;;;;;;;8.50;4.20;;;20.10;91.90;;;;;;4954463;29;20020;-86
2022/05/23 08:33:01;;;;;;;8.15;4.20;;;20.20;92.10;;;;;;4956028;29;20039;-86
2022/05/23 08:35:27;;;;;;;7.28;4.07;;;20.20;92.10;;;;;;4938494;29;20365;-85
2022/05/23 08:37:54;;;;;;;7.28;4.32;;;20.30;92.10;;;;;;4955742;29;20055;-86
2022/05/23 08:40:22;;;;;;;9.18;5.10;;;20.40;92.10;;;;;;4923126;29;20027;-86
2022/05/23 08:43:03;;;;;;;7.72;4.00;;;20.50;92.00;;;;;;4938337;29;20031;-86
2022/05/23 08:45:39;;;;;;;9.02;4.70;;;20.60;92.00;;;;;;4938362;29;20046;-86
2022/05/23 08:48:19;;;;;;;7.80;4.57;;;20.60;92.00;;;;;;4955498;29;20023;-88
2022/05/23 08:51:15;;;;;;;8.50;4.30;;;20.70;91.80;;;;;;4954049;29;20075;-86
2022/05/23 08:53:53;;;;;;;8.10;4.28;;;20.70;91.70;;;;;;4955423;29;20035;-88
2022/05/23 08:56:36;;;;;;;8.38;4.35;;;20.80;91.60;;;;;;4956143;28;20027;-92
2022/05/23 08:59:04;;;;;;;10.35;4.22;;;20.80;91.40;;;;;;4954564;29;20106;-87
2022/05/23 09:01:51;;;;;;;9.23;3.80;;;20.80;91.30;;;;;;4954569;29;20028;-87
2022/05/23 09:04:32;;;;;;;9.35;4.10;;;20.90;91.30;;;;;;4954223;29;20038;-87
2022/05/23 09:07:00;;;;;;;10.50;3.45;;;20.90;91.30;;;;;;4956066;29;20384;-87
2022/05/23 09:09:29;;;;;;;8.05;3.85;;;20.90;91.10;;;;;;4937886;28;20137;-87
2022/05/23 09:12:09;;;;;;;10.23;4.78;;;21.00;91.10;;;;;;4954401;29;20031;-87
2022/05/23 09:14:35;;;;;;;8.10;3.55;;;21.00;91.10;;;;;;4938679;29;20050;-88
2022/05/23 09:17:02;;;;;;;6.93;3.85;;;21.00;91.00;;;;;;4938308;29;20031;-87
2022/05/23 09:20:02;;;;;;;7.57;3.42;;;21.10;90.90;;;;;;4954973;29;20031;-87
2022/05/23 09:22:35;;;;;;;9.18;4.15;;;21.10;90.70;;;;;;4936665;29;20043;-88
2022/05/23 09:25:04;;;;;;;8.35;3.78;;;21.20;90.50;;;;;;4954120;29;20024;-87
2022/05/23 09:28:14;;;;;;;7.63;3.38;;;21.20;90.40;;;;;;4955332;29;20046;-87
2022/05/23 09:30:43;;;;;;;10.43;4.10;;;21.30;90.70;;;;;;4933113;29;20042;-88
2022/05/23 09:33:16;;;;;;;9.60;3.78;;;21.30;90.40;;;;;;4938806;29;20031;-88
2022/05/23 09:35:42;;;;;;;11.55;3.90;;;21.30;90.30;;;;;;4955184;29;20100;-89
2022/05/23 09:38:26;;;;;;;8.85;3.33;;;21.40;90.30;;;;;;4953926;29;20110;-88
2022/05/23 09:40:53;;;;;;;6.70;3.65;;;21.40;88.80;;;;;;4955026;29;20031;-88
2022/05/23 09:49:19;;;;;;;6.18;3.42;;;21.50;88.80;;;;;;4955134;29;20447;-88
2022/05/23 09:51:54;;;;;;;7.05;3.50;;;21.60;88.10;;;;;;4938077;29;20180;-88
2022/05/23 09:54:37;;;;;;;9.00;3.50;;;21.60;87.70;;;;;;4956045;29;20047;-88
2022/05/23 09:57:14;;;;;;;9.32;3.90;;;21.60;87.60;;;;;;4954085;29;20031;-88
2022/05/23 09:59:40;;;;;;;7.90;3.50;;;21.60;87.60;;;;;;4954982;29;20479;-88
2022/05/23 10:02:15;;;;;;;8.35;3.60;;;21.60;86.90;;;;;;4937845;29;20095;-88
2022/05/23 10:04:45;;;;;;;6.40;3.15;;;21.60;86.70;;;;;;4954233;29;20027;-87
2022/05/23 10:07:31;;;;;;;8.47;3.50;;;21.60;86.80;;;;;;4954151;29;20034;-87
2022/05/23 10:10:03;;;;;;;8.10;3.33;;;21.70;86.90;;;;;;4942573;29;20480;-87
2022/05/23 10:12:32;;;;;;;7.63;3.42;;;21.60;86.40;;;;;;4957877;29;20082;-88
2022/05/23 10:15:13;;;;;;;7.22;3.17;;;21.60;86.90;;;;;;4959120;29;20020;-87
2022/05/23 10:17:41;;;;;;;6.47;3.13;;;21.70;87.40;;;;;;4958700;29;20511;-88
2022/05/23 10:20:27;;;;;;;6.47;2.95;;;21.70;87.30;;;;;;4957114;28;20031;-87
2022/05/23 10:22:57;;;;;;;5.32;3.30;;;21.70;87.50;;;;;;4957057;29;20463;-87
2022/05/23 10:25:26;;;;;;;5.68;3.03;;;21.80;88.00;;;;;;4957165;29;20045;-86
2022/05/23 10:28:11;;;;;;;6.28;3.60;;;21.80;88.60;;;;;;4956997;29;20020;-87
2022/05/23 10:30:39;;;;;;;5.78;3.35;;;21.90;89.20;;;;;;4958260;29;20075;-87
2022/05/23 10:33:14;;;;;;;6.30;3.83;;;21.90;89.20;;;;;;4957399;29;20083;-87
2022/05/23 10:35:59;;;;;;;6.28;3.40;;;21.90;89.40;;;;;;4941251;29;20471;-87
2022/05/23 10:44:26;;;;;;;7.93;3.80;;;22.10;89.10;;;;;;4958113;29;20094;-87
2022/05/23 10:47:03;;;;;;;8.63;4.00;;;22.10;89.10;;;;;;4957296;29;20051;-87
2022/05/23 10:50:18;;;;;;;10.07;5.20;;;22.20;89.20;;;;;;4956722;29;20027;-88
2022/05/23 10:52:50;;;;;;;9.50;5.18;;;22.20;89.30;;;;;;4956910;29;20034;-88
2022/05/23 10:55:40;;;;;;;6.78;4.70;;;22.20;89.30;;;;;;4958167;29;20031;-88
2022/05/23 10:58:31;;;;;;;7.40;3.97;;;22.30;89.70;;;;;;4957144;29;20038;-88
2022/05/23 11:01:02;;;;;;;9.82;4.65;;;22.30;89.60;;;;;;4958108;29;20132;-87
2022/05/23 11:03:37;;;;;;;6.63;4.22;;;22.30;89.10;;;;;;4950678;29;20070;-88
2022/05/23 11:06:31;;;;;;;8.05;4.43;;;22.30;88.70;;;;;;4957975;29;20034;-88
2022/05/23 11:09:18;;;;;;;8.10;4.68;;;22.30;89.50;;;;;;4956374;29;20456;-87
2022/05/23 11:11:51;;;;;;;11.20;4.32;;;22.40;89.30;;;;;;4956735;29;20047;-87
2022/05/23 11:14:24;;;;;;;8.63;4.18;;;22.40;89.60;;;;;;4956453;29;20035;-87
2022/05/23 11:17:17;;;;;;;6.68;4.47;;;22.40;90.00;;;;;;4957768;29;20031;-87
2022/05/23 11:19:59;;;;;;;11.10;4.20;;;22.40;90.10;;;;;;4957287;28;20454;-88
2022/05/23 11:22:33;;;;;;;7.32;3.88;;;22.50;90.10;;;;;;4956553;29;20024;-88
2022/05/23 11:25:05;;;;;;;8.60;4.47;;;22.50;90.20;;;;;;4956539;29;20046;-88
2022/05/23 11:33:41;;;;;;;8.60;4.03;;;22.70;90.30;;;;;;4957740;28;20090;-89
2022/05/23 11:36:09;;;;;;;10.68;4.50;;;22.80;90.40;;;;;;4976594;28;20033;-88
2022/05/23 11:38:45;;;;;;;8.95;4.38;;;22.90;90.40;;;;;;4958303;28;20037;-88
2022/05/23 11:41:30;;;;;;;9.13;4.22;;;23.00;89.50;;;;;;4976485;28;20023;-88
2022/05/23 11:43:56;;;;;;;11.95;3.20;;;23.10;89.50;;;;;;4976256;28;20502;-88
2022/05/23 11:47:18;;;;;;;6.93;3.03;;;23.10;86.80;;;;;;4959388;28;20022;-87
2022/05/23 11:50:03;;;;;;;6.75;2.75;;;23.20;86.60;;;;;;4937238;28;20042;-88
2022/05/23 11:52:37;;;;;;;5.47;2.90;;;23.30;85.50;;;;;;4959043;28;20118;-88
2022/05/23 11:55:10;;;;;;;5.45;2.58;;;23.40;85.30;;;;;;4959023;28;20027;-88
2022/05/23 11:57:46;;;;;;;6.50;2.53;;;23.40;84.70;;;;;;4958805;28;20043;-87
2022/05/23 12:00:33;;;;;;;7.50;2.60;;;23.50;84.50;;;;;;4959209;28;20022;-87
2022/05/23 12:03:14;;;;;;;3.42;2.10;;;23.60;84.40;;;;;;4958931;28;20033;-88
2022/05/23 12:05:41;;;;;;;3.72;2.28;;;23.70;84.30;;;;;;4958667;28;20440;-88
2022/05/23 12:08:28;;;;;;;6.80;2.60;;;23.80;84.30;;;;;;4975918;28;20029;-87
2022/05/23 12:10:58;;;;;;;6.95;2.88;;;23.80;84.10;;;;;;4958272;28;20102;-87
2022/05/23 12:13:30;;;;;;;5.03;2.50;;;23.90;84.30;;;;;;4959066;28;20027;-87
2022/05/23 12:15:58;;;;;;;4.90;2.10;;;24.00;83.60;;;;;;4958399;28;20029;-87
2022/05/23 12:18:24;;;;;;;7.93;2.72;;;24.10;83.60;;;;;;4957763;28;20110;-88
2022/05/23 12:21:06;;;;;;;6.18;2.60;;;24.10;83.20;;;;;;4955881;29;20475;-88
2022/05/23 12:23:36;;;;;;;8.32;2.40;;;24.20;79.40;;;;;;4955974;29;20039;-88
2022/05/23 12:26:11;;;;;;;5.30;2.50;;;24.20;79.30;;;;;;4955996;29;20023;-88
2022/05/23 12:28:49;;;;;;;9.35;2.38;;;24.20;79.70;;;;;;4939601;29;20523;-88
2022/05/23 12:31:17;;;;;;;6.20;2.55;;;24.20;80.20;;;;;;4939496;28;20051;-88
2022/05/23 12:33:55;;;;;;;9.45;2.72;;;24.20;80.50;;;;;;4956195;29;20114;-87
2022/05/23 12:36:25;;;;;;;7.47;2.78;;;24.20;80.90;;;;;;4955279;29;20027;-88
2022/05/23 12:39:09;;;;;;;6.05;2.53;;;24.20;80.60;;;;;;4956409;29;20030;-88
2022/05/23 12:41:50;;;;;;;4.70;2.28;;;24.30;80.40;;;;;;4939254;29;20042;-88
2022/05/23 12:45:15;;;;;;;7.15;2.50;;;24.30;80.00;;;;;;4955217;29;20087;-88
2022/05/23 12:48:25;;;;;;;7.40;2.28;;;24.30;80.40;;;;;;4905364;29;20120;-88
2022/05/23 12:51:11;;;;;;;6.65;2.60;;;24.30;79.90;;;;;;4895744;29;20036;-88
2022/05/23 12:54:16;;;;;;;7.10;2.88;;;24.30;79.70;;;;;;4951686;29;20043;-89
2022/05/23 12:57:06;;;;;;;5.43;2.58;;;24.30;79.10;;;;;;4935947;29;20455;-88
2022/05/23 12:59:51;;;;;;;6.07;2.60;;;24.30;78.90;;;;;;4954587;29;20034;-88
2022/05/23 13:02:23;;;;;;;6.65;2.63;;;24.40;79.20;;;;;;4955094;29;20035;-88
2022/05/23 13:05:33;;;;;;;9.77;2.78;;;24.40;79.10;;;;;;4939302;29;20023;-88
2022/05/23 13:08:34;;;;;;;6.28;2.42;;;24.30;78.60;;;;;;4897205;29;20487;-87
2022/05/23 13:11:10;;;;;;;6.25;2.67;;;24.40;78.80;;;;;;4955768;28;20067;-88
2022/05/23 13:13:37;;;;;;;7.18;2.58;;;24.40;79.00;;;;;;4954464;29;20130;-88
2022/05/23 13:16:33;;;;;;;5.72;2.72;;;24.40;79.20;;;;;;4954756;29;20517;-88
2022/05/23 13:22:05;;;;;;;10.45;2.33;;;24.40;79.30;;;;;;4955776;29;20498;-88
2022/05/23 13:24:55;;;;;;;7.85;2.10;;;24.40;76.80;;;;;;4954920;29;20031;-88
2022/05/23 13:27:33;;;;;;;6.07;2.70;;;24.30;76.50;;;;;;4903223;29;20100;-88
2022/05/23 13:30:18;;;;;;;7.15;2.33;;;24.30;76.00;;;;;;4958010;29;20027;-88
2022/05/23 13:32:44;;;;;;;7.68;2.65;;;24.30;76.40;;;;;;4954883;29;20077;-89
2022/05/23 13:35:23;;;;;;;7.60;2.40;;;24.30;76.60;;;;;;4957451;29;20027;-88
2022/05/23 13:38:10;;;;;;;8.02;2.42;;;24.30;76.70;;;;;;4955455;29;20079;-89
2022/05/23 13:40:42;;;;;;;6.43;2.42;;;24.30;76.70;;;;;;4948496;29;20030;-88
2022/05/23 13:43:13;;;;;;;7.32;2.08;;;24.30;76.80;;;;;;4957480;28;20035;-88
2022/05/23 13:45:41;;;;;;;5.97;2.33;;;24.30;76.80;;;;;;4960711;29;20045;-88
2022/05/23 13:48:16;;;;;;;6.45;2.60;;;24.30;76.90;;;;;;4959000;29;20035;-89
2022/05/23 13:50:49;;;;;;;7.97;2.38;;;24.20;76.80;;;;;;4957941;29;20182;-89
2022/05/23 13:53:42;;;;;;;7.05;2.40;;;24.20;77.00;;;;;;4958383;29;20031;-88
2022/05/23 13:56:08;;;;;;;11.05;2.50;;;24.30;77.50;;;;;;4959207;29;20035;-88
2022/05/23 13:58:40;;;;;;;9.13;2.53;;;24.30;77.60;;;;;;4942196;29;20023;-88
2022/05/23 14:01:17;;;;;;;9.75;2.45;;;24.30;77.70;;;;;;4958095;29;20114;-88
2022/05/23 14:03:56;;;;;;;7.47;2.85;;;24.20;77.60;;;;;;4958007;29;20126;-87
2022/05/23 14:06:31;;;;;;;7.20;2.93;;;24.20;80.00;;;;;;4957787;29;20023;-88
2022/05/23 14:09:00;;;;;;;6.70;3.33;;;24.20;81.30;;;;;;4956378;28;20023;-87
2022/05/23 14:11:35;;;;;;;5.57;2.50;;;24.10;82.50;;;;;;4957510;28;20054;-89
2022/05/23 14:14:16;;;;;;;10.52;3.50;;;24.10;83.50;;;;;;4960025;29;20073;-88